sensor_id;sensor_type;location;lat;lon;timestamp;temperature;humidity
8662;DHT22;29684;47.722;9.388;2023-08-01T05:47:47;18.00;99.90
8662;DHT22;29684;47.722;9.388;2023-08-01T05:53:16;18.10;99.90
8662;DHT22;29684;47.722;9.388;2023-08-01T05:58:45;18.10;99.90
8662;DHT22;29684;47.722;9.388;2023-08-01T06:01:30;18.20;99.90
8662;DHT22;29684;47.722;9.388;2023-08-01T06:04:14;18.30;99.90
8662;DHT22;29684;47.722;9.388;2023-08-01T06:09:43;18.40;99.90
8662;DHT22;29684;47.722;9.388;2023-08-01T06:12:27;18.40;99.90
8662;DHT22;29684;47.722;9.388;2023-08-01T06:15:12;18.20;99.90
8662;DHT22;29684;47.722;9.388;2023-08-01T06:17:56;18.10;99.90
8662;DHT22;29684;47.722;9.388;2023-08-01T06:20:41;18.10;99.90
8662;DHT22;29684;47.722;9.388;2023-08-01T06:23:25;18.20;99.90
8662;DHT22;29684;47.722;9.388;2023-08-01T06:26:09;18.00;99.90
8662;DHT22;29684;47.722;9.388;2023-08-01T06:28:54;18.00;99.90
8662;DHT22;29684;47.722;9.388;2023-08-01T06:31:38;18.00;99.90
8662;DHT22;29684;47.722;9.388;2023-08-01T06:34:22;17.90;99.90
8662;DHT22;29684;47.722;9.388;2023-08-01T06:37:08;17.80;99.90
8662;DHT22;29684;47.722;9.388;2023-08-01T06:39:55;17.70;99.90
8662;DHT22;29684;47.722;9.388;2023-08-01T06:42:39;17.50;99.90
8662;DHT22;29684;47.722;9.388;2023-08-01T06:45:25;17.40;99.90
8662;DHT22;29684;47.722;9.388;2023-08-01T06:48:09;17.30;99.90
8662;DHT22;29684;47.722;9.388;2023-08-01T06:50:54;17.20;99.90
8662;DHT22;29684;47.722;9.388;2023-08-01T06:53:38;17.20;99.90
8662;DHT22;29684;47.722;9.388;2023-08-01T06:56:22;17.20;99.90
8662;DHT22;29684;47.722;9.388;2023-08-01T06:59:06;17.20;99.90
8662;DHT22;29684;47.722;9.388;2023-08-01T07:01:50;17.20;99.90
8662;DHT22;29684;47.722;9.388;2023-08-01T07:04:34;17.30;99.90
8662;DHT22;29684;47.722;9.388;2023-08-01T07:07:18;17.30;99.90
8662;DHT22;29684;47.722;9.388;2023-08-01T07:10:03;17.30;99.90
8662;DHT22;29684;47.722;9.388;2023-08-01T07:12:49;17.30;99.90
8662;DHT22;29684;47.722;9.388;2023-08-01T07:18:18;17.30;99.90
8662;DHT22;29684;47.722;9.388;2023-08-01T07:21:03;17.30;99.90
8662;DHT22;29684;47.722;9.388;2023-08-01T07:23:48;17.30;99.90
8662;DHT22;29684;47.722;9.388;2023-08-01T07:26:32;17.30;99.90
8662;DHT22;29684;47.722;9.388;2023-08-01T07:29:16;17.30;99.90
8662;DHT22;29684;47.722;9.388;2023-08-01T07:32:01;17.40;99.90
8662;DHT22;29684;47.722;9.388;2023-08-01T07:34:45;17.40;99.90
8662;DHT22;29684;47.722;9.388;2023-08-01T07:37:29;17.50;99.90
8662;DHT22;29684;47.722;9.388;2023-08-01T07:40:13;17.60;99.90
8662;DHT22;29684;47.722;9.388;2023-08-01T07:42:57;17.60;99.90
8662;DHT22;29684;47.722;9.388;2023-08-01T07:45:44;17.70;99.90
8662;DHT22;29684;47.722;9.388;2023-08-01T07:48:27;17.80;99.90
8662;DHT22;29684;47.722;9.388;2023-08-01T07:51:12;17.80;99.90
8662;DHT22;29684;47.722;9.388;2023-08-01T07:53:57;17.90;99.90
8662;DHT22;29684;47.722;9.388;2023-08-01T07:56:41;18.00;99.90
8662;DHT22;29684;47.722;9.388;2023-08-01T07:59:27;18.00;99.90
8662;DHT22;29684;47.722;9.388;2023-08-01T08:02:12;18.00;99.90
8662;DHT22;29684;47.722;9.388;2023-08-01T08:04:56;18.10;99.90
8662;DHT22;29684;47.722;9.388;2023-08-01T08:07:40;18.00;99.90
8662;DHT22;29684;47.722;9.388;2023-08-01T08:10:24;18.10;99.90
8662;DHT22;29684;47.722;9.388;2023-08-01T08:13:09;18.10;99.90
8662;DHT22;29684;47.722;9.388;2023-08-01T08:15:56;18.10;99.90
8662;DHT22;29684;47.722;9.388;2023-08-01T08:18:41;18.10;99.90
8662;DHT22;29684;47.722;9.388;2023-08-01T08:21:25;18.10;99.90
8662;DHT22;29684;47.722;9.388;2023-08-01T08:24:10;18.10;99.90
8662;DHT22;29684;47.722;9.388;2023-08-01T08:26:54;18.20;99.90
8662;DHT22;29684;47.722;9.388;2023-08-01T08:29:40;18.20;99.90
8662;DHT22;29684;47.722;9.388;2023-08-01T08:32:24;18.20;99.90
8662;DHT22;29684;47.722;9.388;2023-08-01T08:35:09;18.10;99.90
8662;DHT22;29684;47.722;9.388;2023-08-01T08:37:53;18.10;99.90
8662;DHT22;29684;47.722;9.388;2023-08-01T08:40:40;18.10;99.90
8662;DHT22;29684;47.722;9.388;2023-08-01T08:43:29;18.10;99.90
8662;DHT22;29684;47.722;9.388;2023-08-01T08:46:16;18.00;99.90
8662;DHT22;29684;47.722;9.388;2023-08-01T08:49:00;17.90;99.90
8662;DHT22;29684;47.722;9.388;2023-08-01T08:51:45;17.90;99.90
8662;DHT22;29684;47.722;9.388;2023-08-01T08:54:30;17.90;99.90
8662;DHT22;29684;47.722;9.388;2023-08-01T08:57:15;17.80;99.90
8662;DHT22;29684;47.722;9.388;2023-08-01T09:00:03;17.50;99.90
8662;DHT22;29684;47.722;9.388;2023-08-01T09:02:48;17.20;99.90
8662;DHT22;29684;47.722;9.388;2023-08-01T09:06:28;17.00;99.90
8662;DHT22;29684;47.722;9.388;2023-08-01T09:09:13;16.70;99.90
8662;DHT22;29684;47.722;9.388;2023-08-01T09:11:58;16.60;99.90
8662;DHT22;29684;47.722;9.388;2023-08-01T09:14:43;16.50;99.90
8662;DHT22;29684;47.722;9.388;2023-08-01T09:17:27;16.50;99.90
8662;DHT22;29684;47.722;9.388;2023-08-01T09:20:12;16.40;99.90
8662;DHT22;29684;47.722;9.388;2023-08-01T09:22:56;16.40;99.90
8662;DHT22;29684;47.722;9.388;2023-08-01T09:25:41;16.30;99.90
8662;DHT22;29684;47.722;9.388;2023-08-01T09:28:25;16.30;99.90
8662;DHT22;29684;47.722;9.388;2023-08-01T09:31:11;16.30;99.90
8662;DHT22;29684;47.722;9.388;2023-08-01T09:33:55;16.30;99.90
8662;DHT22;29684;47.722;9.388;2023-08-01T09:36:39;16.20;99.90
8662;DHT22;29684;47.722;9.388;2023-08-01T09:39:24;16.00;99.90
8662;DHT22;29684;47.722;9.388;2023-08-01T09:42:11;16.00;99.90
8662;DHT22;29684;47.722;9.388;2023-08-01T09:44:56;16.00;99.90
8662;DHT22;29684;47.722;9.388;2023-08-01T09:47:40;16.10;99.90
8662;DHT22;29684;47.722;9.388;2023-08-01T09:50:25;16.00;99.90
8662;DHT22;29684;47.722;9.388;2023-08-01T09:53:09;16.00;99.90
8662;DHT22;29684;47.722;9.388;2023-08-01T09:55:53;16.00;99.90
8662;DHT22;29684;47.722;9.388;2023-08-01T09:58:40;15.90;99.90
8662;DHT22;29684;47.722;9.388;2023-08-01T10:01:25;15.90;99.90
8662;DHT22;29684;47.722;9.388;2023-08-01T10:04:12;15.90;99.90
8662;DHT22;29684;47.722;9.388;2023-08-01T10:07:08;15.90;99.90
8662;DHT22;29684;47.722;9.388;2023-08-01T10:09:58;15.90;99.90
8662;DHT22;29684;47.722;9.388;2023-08-01T10:12:45;15.90;99.90
8662;DHT22;29684;47.722;9.388;2023-08-01T10:15:32;15.90;99.90
8662;DHT22;29684;47.722;9.388;2023-08-01T10:18:17;15.90;99.90
8662;DHT22;29684;47.722;9.388;2023-08-01T10:21:01;16.00;99.90
8662;DHT22;29684;47.722;9.388;2023-08-01T10:23:46;16.10;99.90
8662;DHT22;29684;47.722;9.388;2023-08-01T10:26:31;16.30;99.90
8662;DHT22;29684;47.722;9.388;2023-08-01T10:29:15;16.40;99.90
8662;DHT22;29684;47.722;9.388;2023-08-01T10:31:59;16.40;99.90
8662;DHT22;29684;47.722;9.388;2023-08-01T10:34:51;16.60;99.90
8662;DHT22;29684;47.722;9.388;2023-08-01T10:37:45;16.70;99.90
8662;DHT22;29684;47.722;9.388;2023-08-01T10:40:42;16.90;99.90
8662;DHT22;29684;47.722;9.388;2023-08-01T10:43:27;17.10;99.90
8662;DHT22;29684;47.722;9.388;2023-08-01T10:46:10;17.50;99.90
8662;DHT22;29684;47.722;9.388;2023-08-01T10:48:55;17.40;99.90
8662;DHT22;29684;47.722;9.388;2023-08-01T10:51:39;17.50;99.90
8662;DHT22;29684;47.722;9.388;2023-08-01T10:54:25;17.50;99.90
8662;DHT22;29684;47.722;9.388;2023-08-01T10:57:15;17.70;99.90
8662;DHT22;29684;47.722;9.388;2023-08-01T11:00:01;17.80;99.90
8662;DHT22;29684;47.722;9.388;2023-08-01T11:02:50;17.80;99.90
8662;DHT22;29684;47.722;9.388;2023-08-01T11:05:35;17.90;99.90
8662;DHT22;29684;47.722;9.388;2023-08-01T11:08:19;17.90;99.90
8662;DHT22;29684;47.722;9.388;2023-08-01T11:11:07;17.80;99.90
8662;DHT22;29684;47.722;9.388;2023-08-01T11:13:55;17.80;99.90
8662;DHT22;29684;47.722;9.388;2023-08-01T11:16:40;17.90;99.90
8662;DHT22;29684;47.722;9.388;2023-08-01T11:19:27;18.30;99.90
8662;DHT22;29684;47.722;9.388;2023-08-01T11:22:11;18.60;99.90
8662;DHT22;29684;47.722;9.388;2023-08-01T11:24:55;18.80;99.90
8662;DHT22;29684;47.722;9.388;2023-08-01T11:27:40;19.10;99.90
8662;DHT22;29684;47.722;9.388;2023-08-01T11:30:31;19.10;99.90
8662;DHT22;29684;47.722;9.388;2023-08-01T11:33:21;19.00;99.90
8662;DHT22;29684;47.722;9.388;2023-08-01T11:36:06;19.20;99.90
8662;DHT22;29684;47.722;9.388;2023-08-01T11:38:51;19.40;99.90
8662;DHT22;29684;47.722;9.388;2023-08-01T11:41:35;19.50;99.90
8662;DHT22;29684;47.722;9.388;2023-08-01T11:44:23;19.50;99.90
8662;DHT22;29684;47.722;9.388;2023-08-01T11:47:15;19.40;99.90
8662;DHT22;29684;47.722;9.388;2023-08-01T11:49:59;19.10;99.90
8662;DHT22;29684;47.722;9.388;2023-08-01T11:52:46;19.10;99.90
8662;DHT22;29684;47.722;9.388;2023-08-01T11:55:35;19.30;99.90
8662;DHT22;29684;47.722;9.388;2023-08-01T11:58:35;19.20;99.90
8662;DHT22;29684;47.722;9.388;2023-08-01T12:01:20;19.70;99.90
8662;DHT22;29684;47.722;9.388;2023-08-01T12:04:04;19.70;99.90
8662;DHT22;29684;47.722;9.388;2023-08-01T12:06:49;19.90;99.90
8662;DHT22;29684;47.722;9.388;2023-08-01T12:09:33;19.70;99.90
8662;DHT22;29684;47.722;9.388;2023-08-01T12:12:17;19.80;99.90
8662;DHT22;29684;47.722;9.388;2023-08-01T12:15:02;20.10;99.90
8662;DHT22;29684;47.722;9.388;2023-08-01T12:17:46;20.00;99.90
8662;DHT22;29684;47.722;9.388;2023-08-01T12:20:30;19.80;99.90
8662;DHT22;29684;47.722;9.388;2023-08-01T12:23:14;19.90;99.90
8662;DHT22;29684;47.722;9.388;2023-08-01T12:25:59;20.10;99.90
8662;DHT22;29684;47.722;9.388;2023-08-01T12:28:43;20.20;99.90
8662;DHT22;29684;47.722;9.388;2023-08-01T12:31:28;20.10;99.90
8662;DHT22;29684;47.722;9.388;2023-08-01T12:34:12;20.10;99.90
8662;DHT22;29684;47.722;9.388;2023-08-01T12:36:56;20.10;99.90
8662;DHT22;29684;47.722;9.388;2023-08-01T12:39:40;20.00;99.90
8662;DHT22;29684;47.722;9.388;2023-08-01T12:42:24;19.80;99.90
8662;DHT22;29684;47.722;9.388;2023-08-01T12:45:08;20.20;99.90
8662;DHT22;29684;47.722;9.388;2023-08-01T12:47:53;20.20;99.90
8662;DHT22;29684;47.722;9.388;2023-08-01T12:50:37;20.10;99.90
8662;DHT22;29684;47.722;9.388;2023-08-01T12:53:22;20.10;99.90
8662;DHT22;29684;47.722;9.388;2023-08-01T12:56:06;20.10;99.90
8662;DHT22;29684;47.722;9.388;2023-08-01T12:58:51;20.00;99.90
8662;DHT22;29684;47.722;9.388;2023-08-01T13:01:35;20.10;99.90
8662;DHT22;29684;47.722;9.388;2023-08-01T13:04:20;20.40;99.90
8662;DHT22;29684;47.722;9.388;2023-08-01T13:07:04;20.40;99.90
8662;DHT22;29684;47.722;9.388;2023-08-01T13:09:48;20.40;99.90
8662;DHT22;29684;47.722;9.388;2023-08-01T13:12:32;20.60;99.90
8662;DHT22;29684;47.722;9.388;2023-08-01T13:15:17;20.60;99.90
8662;DHT22;29684;47.722;9.388;2023-08-01T13:18:01;20.70;99.90
8662;DHT22;29684;47.722;9.388;2023-08-01T13:20:48;20.40;99.90
8662;DHT22;29684;47.722;9.388;2023-08-01T13:23:32;20.30;99.90
8662;DHT22;29684;47.722;9.388;2023-08-01T13:26:16;19.60;99.90
8662;DHT22;29684;47.722;9.388;2023-08-01T13:31:46;19.30;99.90
8662;DHT22;29684;47.722;9.388;2023-08-01T13:34:30;18.60;99.90
8662;DHT22;29684;47.722;9.388;2023-08-01T13:37:14;18.50;99.90
8662;DHT22;29684;47.722;9.388;2023-08-01T13:39:58;18.10;99.90
8662;DHT22;29684;47.722;9.388;2023-08-01T13:42:42;17.90;99.90
8662;DHT22;29684;47.722;9.388;2023-08-01T13:45:30;17.70;99.90
8662;DHT22;29684;47.722;9.388;2023-08-01T13:48:14;17.70;99.90
8662;DHT22;29684;47.722;9.388;2023-08-01T13:50:58;17.80;99.90
8662;DHT22;29684;47.722;9.388;2023-08-01T13:53:43;17.90;99.90
8662;DHT22;29684;47.722;9.388;2023-08-01T13:56:27;18.20;99.90
8662;DHT22;29684;47.722;9.388;2023-08-01T13:59:11;18.20;99.90
8662;DHT22;29684;47.722;9.388;2023-08-01T14:01:56;18.30;99.90
8662;DHT22;29684;47.722;9.388;2023-08-01T14:04:41;17.80;99.90
8662;DHT22;29684;47.722;9.388;2023-08-01T14:07:25;18.00;99.90
8662;DHT22;29684;47.722;9.388;2023-08-01T14:10:09;18.00;99.90
8662;DHT22;29684;47.722;9.388;2023-08-01T14:12:53;18.10;99.90
8662;DHT22;29684;47.722;9.388;2023-08-01T14:15:37;18.30;99.90
8662;DHT22;29684;47.722;9.388;2023-08-01T14:21:06;18.40;99.90
8662;DHT22;29684;47.722;9.388;2023-08-01T14:23:50;18.40;99.90
8662;DHT22;29684;47.722;9.388;2023-08-01T14:26:35;18.40;99.90
8662;DHT22;29684;47.722;9.388;2023-08-01T14:29:19;18.90;99.90
8662;DHT22;29684;47.722;9.388;2023-08-01T14:32:06;19.10;99.90
8662;DHT22;29684;47.722;9.388;2023-08-01T14:34:50;19.10;99.90
8662;DHT22;29684;47.722;9.388;2023-08-01T14:37:35;19.20;99.90
8662;DHT22;29684;47.722;9.388;2023-08-01T14:40:20;19.10;99.90
8662;DHT22;29684;47.722;9.388;2023-08-01T14:43:05;19.10;99.90
8662;DHT22;29684;47.722;9.388;2023-08-01T14:45:50;19.20;99.90
8662;DHT22;29684;47.722;9.388;2023-08-01T14:48:34;19.10;99.90
8662;DHT22;29684;47.722;9.388;2023-08-01T14:51:18;19.00;99.90
8662;DHT22;29684;47.722;9.388;2023-08-01T14:54:02;19.00;99.90
8662;DHT22;29684;47.722;9.388;2023-08-01T14:56:46;19.00;99.90
8662;DHT22;29684;47.722;9.388;2023-08-01T14:59:31;19.10;99.90
8662;DHT22;29684;47.722;9.388;2023-08-01T15:02:15;19.10;99.90
8662;DHT22;29684;47.722;9.388;2023-08-01T15:05:00;19.10;99.90
8662;DHT22;29684;47.722;9.388;2023-08-01T15:07:44;19.30;99.90
8662;DHT22;29684;47.722;9.388;2023-08-01T15:10:28;19.30;99.90
8662;DHT22;29684;47.722;9.388;2023-08-01T15:13:12;19.70;99.90
8662;DHT22;29684;47.722;9.388;2023-08-01T15:15:57;20.00;99.90
8662;DHT22;29684;47.722;9.388;2023-08-01T15:18:41;19.90;99.90
8662;DHT22;29684;47.722;9.388;2023-08-01T15:21:25;19.80;99.90
8662;DHT22;29684;47.722;9.388;2023-08-01T15:24:11;20.00;99.90
8662;DHT22;29684;47.722;9.388;2023-08-01T15:26:55;20.10;99.90
8662;DHT22;29684;47.722;9.388;2023-08-01T15:29:39;20.00;99.90
8662;DHT22;29684;47.722;9.388;2023-08-01T15:32:24;19.90;99.90
8662;DHT22;29684;47.722;9.388;2023-08-01T15:35:08;19.50;99.90
8662;DHT22;29684;47.722;9.388;2023-08-01T15:37:52;19.40;99.90
8662;DHT22;29684;47.722;9.388;2023-08-01T15:40:36;19.60;99.90
8662;DHT22;29684;47.722;9.388;2023-08-01T15:43:22;19.70;99.90
8662;DHT22;29684;47.722;9.388;2023-08-01T15:46:08;19.50;99.90
8662;DHT22;29684;47.722;9.388;2023-08-01T15:48:53;19.40;99.90
8662;DHT22;29684;47.722;9.388;2023-08-01T15:51:37;19.10;99.90
8662;DHT22;29684;47.722;9.388;2023-08-01T15:54:22;18.90;99.90
8662;DHT22;29684;47.722;9.388;2023-08-01T15:57:06;19.00;99.90
8662;DHT22;29684;47.722;9.388;2023-08-01T15:59:51;19.00;99.90
8662;DHT22;29684;47.722;9.388;2023-08-01T16:02:35;19.10;99.90
8662;DHT22;29684;47.722;9.388;2023-08-01T16:05:19;19.10;99.90
8662;DHT22;29684;47.722;9.388;2023-08-01T16:08:04;19.10;99.90
8662;DHT22;29684;47.722;9.388;2023-08-01T16:10:49;19.20;99.90
8662;DHT22;29684;47.722;9.388;2023-08-01T16:13:33;19.10;99.90
8662;DHT22;29684;47.722;9.388;2023-08-01T16:16:17;19.40;99.90
8662;DHT22;29684;47.722;9.388;2023-08-01T16:19:01;19.40;99.90
8662;DHT22;29684;47.722;9.388;2023-08-01T16:21:45;19.30;99.90
8662;DHT22;29684;47.722;9.388;2023-08-01T16:24:29;19.90;99.90
8662;DHT22;29684;47.722;9.388;2023-08-01T16:27:13;21.60;99.90
8662;DHT22;29684;47.722;9.388;2023-08-01T16:29:58;22.00;99.90
8662;DHT22;29684;47.722;9.388;2023-08-01T16:32:42;22.10;99.90
8662;DHT22;29684;47.722;9.388;2023-08-01T16:35:26;22.40;99.90
8662;DHT22;29684;47.722;9.388;2023-08-01T16:38:10;22.30;99.90
8662;DHT22;29684;47.722;9.388;2023-08-01T16:40:57;21.80;99.90
8662;DHT22;29684;47.722;9.388;2023-08-01T16:43:41;20.90;99.90
8662;DHT22;29684;47.722;9.388;2023-08-01T16:46:26;20.10;99.90
8662;DHT22;29684;47.722;9.388;2023-08-01T16:49:11;20.00;99.90
8662;DHT22;29684;47.722;9.388;2023-08-01T16:51:56;20.00;99.90
8662;DHT22;29684;47.722;9.388;2023-08-01T16:54:41;19.80;99.90
8662;DHT22;29684;47.722;9.388;2023-08-01T16:57:25;19.80;99.90
8662;DHT22;29684;47.722;9.388;2023-08-01T17:00:09;20.90;99.90
8662;DHT22;29684;47.722;9.388;2023-08-01T17:02:54;20.80;99.90
8662;DHT22;29684;47.722;9.388;2023-08-01T17:05:39;21.60;99.90
8662;DHT22;29684;47.722;9.388;2023-08-01T17:08:23;21.30;99.90
8662;DHT22;29684;47.722;9.388;2023-08-01T17:11:08;22.00;99.90
8662;DHT22;29684;47.722;9.388;2023-08-01T17:13:52;22.70;99.90
8662;DHT22;29684;47.722;9.388;2023-08-01T17:16:36;22.60;99.90
8662;DHT22;29684;47.722;9.388;2023-08-01T17:19:21;21.70;99.90
8662;DHT22;29684;47.722;9.388;2023-08-01T17:22:05;21.80;99.90
8662;DHT22;29684;47.722;9.388;2023-08-01T17:24:49;21.90;99.90
8662;DHT22;29684;47.722;9.388;2023-08-01T17:27:33;21.80;99.90
8662;DHT22;29684;47.722;9.388;2023-08-01T17:30:18;20.70;99.90
8662;DHT22;29684;47.722;9.388;2023-08-01T17:33:02;20.20;99.90
8662;DHT22;29684;47.722;9.388;2023-08-01T17:35:46;19.60;99.90
8662;DHT22;29684;47.722;9.388;2023-08-01T17:38:30;19.30;99.90
8662;DHT22;29684;47.722;9.388;2023-08-01T17:41:22;19.10;99.90
8662;DHT22;29684;47.722;9.388;2023-08-01T17:44:07;19.00;99.90
8662;DHT22;29684;47.722;9.388;2023-08-01T17:46:53;19.10;99.90
8662;DHT22;29684;47.722;9.388;2023-08-01T17:49:36;19.20;99.90
8662;DHT22;29684;47.722;9.388;2023-08-01T17:52:20;18.80;99.90
8662;DHT22;29684;47.722;9.388;2023-08-01T17:55:06;19.00;99.90
8662;DHT22;29684;47.722;9.388;2023-08-01T17:57:51;19.70;99.90
8662;DHT22;29684;47.722;9.388;2023-08-01T18:00:36;19.70;99.90
8662;DHT22;29684;47.722;9.388;2023-08-01T18:03:20;19.10;99.90
8662;DHT22;29684;47.722;9.388;2023-08-01T18:06:05;18.90;99.90
8662;DHT22;29684;47.722;9.388;2023-08-01T18:08:49;18.90;99.90
8662;DHT22;29684;47.722;9.388;2023-08-01T18:11:33;19.60;99.90
8662;DHT22;29684;47.722;9.388;2023-08-01T18:14:18;19.70;99.90
8662;DHT22;29684;47.722;9.388;2023-08-01T18:17:04;20.00;99.90
8662;DHT22;29684;47.722;9.388;2023-08-01T18:19:48;19.90;99.90
8662;DHT22;29684;47.722;9.388;2023-08-01T18:22:32;19.40;99.90
8662;DHT22;29684;47.722;9.388;2023-08-01T18:25:16;18.90;99.90
8662;DHT22;29684;47.722;9.388;2023-08-01T18:28:00;18.70;99.90
8662;DHT22;29684;47.722;9.388;2023-08-01T18:30:46;18.60;99.90
8662;DHT22;29684;47.722;9.388;2023-08-01T18:33:30;18.50;99.90
8662;DHT22;29684;47.722;9.388;2023-08-01T18:36:17;18.30;99.90
8662;DHT22;29684;47.722;9.388;2023-08-01T18:39:02;18.20;99.90
8662;DHT22;29684;47.722;9.388;2023-08-01T18:41:46;18.10;99.90
8662;DHT22;29684;47.722;9.388;2023-08-01T18:44:31;18.00;99.90
8662;DHT22;29684;47.722;9.388;2023-08-01T18:47:15;18.00;99.90
8662;DHT22;29684;47.722;9.388;2023-08-01T18:52:48;17.90;99.90
8662;DHT22;29684;47.722;9.388;2023-08-01T18:58:20;17.80;99.90
8662;DHT22;29684;47.722;9.388;2023-08-01T19:01:22;17.80;99.90
8662;DHT22;29684;47.722;9.388;2023-08-01T19:04:07;17.80;99.90
8662;DHT22;29684;47.722;9.388;2023-08-01T19:06:52;17.90;99.90
8662;DHT22;29684;47.722;9.388;2023-08-01T19:09:36;17.80;99.90
8662;DHT22;29684;47.722;9.388;2023-08-01T19:12:20;17.90;99.90
8662;DHT22;29684;47.722;9.388;2023-08-01T19:15:05;17.80;99.90
8662;DHT22;29684;47.722;9.388;2023-08-01T19:17:49;17.60;99.90
8662;DHT22;29684;47.722;9.388;2023-08-01T19:20:37;17.70;99.90
8662;DHT22;29684;47.722;9.388;2023-08-01T19:23:21;17.60;99.90
8662;DHT22;29684;47.722;9.388;2023-08-01T19:26:10;17.70;99.90
8662;DHT22;29684;47.722;9.388;2023-08-01T19:28:55;17.80;99.90
8662;DHT22;29684;47.722;9.388;2023-08-01T19:31:40;17.80;99.90
8662;DHT22;29684;47.722;9.388;2023-08-01T19:34:25;17.80;99.90
8662;DHT22;29684;47.722;9.388;2023-08-01T19:39:53;17.80;99.90
8662;DHT22;29684;47.722;9.388;2023-08-01T19:42:42;17.80;99.90
8662;DHT22;29684;47.722;9.388;2023-08-01T19:45:29;17.80;99.90
8662;DHT22;29684;47.722;9.388;2023-08-01T19:48:13;17.80;99.90
8662;DHT22;29684;47.722;9.388;2023-08-01T19:50:58;17.70;99.90
8662;DHT22;29684;47.722;9.388;2023-08-01T19:53:44;17.70;99.90
8662;DHT22;29684;47.722;9.388;2023-08-01T19:56:28;17.60;99.90
8662;DHT22;29684;47.722;9.388;2023-08-01T19:59:13;17.60;99.90
8662;DHT22;29684;47.722;9.388;2023-08-01T20:01:57;17.60;99.90
8662;DHT22;29684;47.722;9.388;2023-08-01T20:04:41;17.60;99.90
8662;DHT22;29684;47.722;9.388;2023-08-01T20:07:26;17.50;99.90
8662;DHT22;29684;47.722;9.388;2023-08-01T20:10:11;17.50;99.90
8662;DHT22;29684;47.722;9.388;2023-08-01T20:12:56;17.50;99.90
8662;DHT22;29684;47.722;9.388;2023-08-01T20:15:41;17.50;99.90
8662;DHT22;29684;47.722;9.388;2023-08-01T20:18:25;17.40;99.90
8662;DHT22;29684;47.722;9.388;2023-08-01T20:23:54;17.40;99.90
8662;DHT22;29684;47.722;9.388;2023-08-01T20:26:38;17.40;99.90
8662;DHT22;29684;47.722;9.388;2023-08-01T20:29:22;17.40;99.90
8662;DHT22;29684;47.722;9.388;2023-08-01T20:32:08;17.30;99.90
8662;DHT22;29684;47.722;9.388;2023-08-01T20:34:53;17.30;99.90
8662;DHT22;29684;47.722;9.388;2023-08-01T20:37:37;17.20;99.90
8662;DHT22;29684;47.722;9.388;2023-08-01T20:40:22;17.20;99.90
8662;DHT22;29684;47.722;9.388;2023-08-01T20:43:06;17.20;99.90
8662;DHT22;29684;47.722;9.388;2023-08-01T20:45:51;17.10;99.90
8662;DHT22;29684;47.722;9.388;2023-08-01T20:48:35;17.00;99.90
8662;DHT22;29684;47.722;9.388;2023-08-01T20:51:20;17.00;99.90
8662;DHT22;29684;47.722;9.388;2023-08-01T20:54:04;16.90;99.90
8662;DHT22;29684;47.722;9.388;2023-08-01T20:56:48;16.80;99.90
8662;DHT22;29684;47.722;9.388;2023-08-01T20:59:33;16.70;99.90
8662;DHT22;29684;47.722;9.388;2023-08-01T21:02:17;16.70;99.90
8662;DHT22;29684;47.722;9.388;2023-08-01T21:05:01;16.70;99.90
8662;DHT22;29684;47.722;9.388;2023-08-01T21:07:45;16.70;99.90
8662;DHT22;29684;47.722;9.388;2023-08-01T21:10:30;16.70;99.90
8662;DHT22;29684;47.722;9.388;2023-08-01T21:13:15;16.70;99.90
8662;DHT22;29684;47.722;9.388;2023-08-01T21:16:10;16.60;99.90
8662;DHT22;29684;47.722;9.388;2023-08-01T21:18:54;16.50;99.90
8662;DHT22;29684;47.722;9.388;2023-08-01T21:21:38;16.50;99.90
8662;DHT22;29684;47.722;9.388;2023-08-01T21:24:22;16.40;99.90
8662;DHT22;29684;47.722;9.388;2023-08-01T21:27:07;16.40;99.90
8662;DHT22;29684;47.722;9.388;2023-08-01T21:29:51;16.30;99.90
8662;DHT22;29684;47.722;9.388;2023-08-01T21:32:35;16.20;99.90
8662;DHT22;29684;47.722;9.388;2023-08-01T21:35:20;16.10;99.90
8662;DHT22;29684;47.722;9.388;2023-08-01T21:38:04;16.00;99.90
8662;DHT22;29684;47.722;9.388;2023-08-01T21:40:48;15.90;99.90
8662;DHT22;29684;47.722;9.388;2023-08-01T21:43:32;15.90;99.90
8662;DHT22;29684;47.722;9.388;2023-08-01T21:46:16;15.80;99.90
8662;DHT22;29684;47.722;9.388;2023-08-01T21:49:00;15.70;99.90
8662;DHT22;29684;47.722;9.388;2023-08-01T21:51:45;15.50;99.90
8662;DHT22;29684;47.722;9.388;2023-08-01T21:54:29;15.50;99.90
8662;DHT22;29684;47.722;9.388;2023-08-01T21:57:13;15.50;99.90
8662;DHT22;29684;47.722;9.388;2023-08-01T21:59:57;15.50;99.90
8662;DHT22;29684;47.722;9.388;2023-08-01T22:02:42;15.40;99.90
8662;DHT22;29684;47.722;9.388;2023-08-01T22:05:26;15.50;99.90
8662;DHT22;29684;47.722;9.388;2023-08-01T22:08:10;15.40;99.90
8662;DHT22;29684;47.722;9.388;2023-08-01T22:10:56;15.20;99.90
8662;DHT22;29684;47.722;9.388;2023-08-01T22:13:41;15.20;99.90
8662;DHT22;29684;47.722;9.388;2023-08-01T22:16:25;15.00;99.90
8662;DHT22;29684;47.722;9.388;2023-08-01T22:19:10;14.90;99.90
8662;DHT22;29684;47.722;9.388;2023-08-01T22:21:54;14.90;99.90
8662;DHT22;29684;47.722;9.388;2023-08-01T22:24:38;14.90;99.90
8662;DHT22;29684;47.722;9.388;2023-08-01T22:27:23;14.90;99.90
8662;DHT22;29684;47.722;9.388;2023-08-01T22:30:07;15.00;99.90
8662;DHT22;29684;47.722;9.388;2023-08-01T22:32:51;14.80;99.90
8662;DHT22;29684;47.722;9.388;2023-08-01T22:35:35;14.80;99.90
8662;DHT22;29684;47.722;9.388;2023-08-01T22:38:19;14.80;99.90
8662;DHT22;29684;47.722;9.388;2023-08-01T22:41:13;14.70;99.90
8662;DHT22;29684;47.722;9.388;2023-08-01T22:46:43;14.60;99.90
8662;DHT22;29684;47.722;9.388;2023-08-01T22:49:27;14.60;99.90
8662;DHT22;29684;47.722;9.388;2023-08-01T22:52:12;14.60;99.90
8662;DHT22;29684;47.722;9.388;2023-08-01T22:54:57;14.70;99.90
8662;DHT22;29684;47.722;9.388;2023-08-01T22:57:41;14.70;99.90
8662;DHT22;29684;47.722;9.388;2023-08-01T23:00:26;14.60;99.90
8662;DHT22;29684;47.722;9.388;2023-08-01T23:03:10;14.50;99.90
8662;DHT22;29684;47.722;9.388;2023-08-01T23:05:55;14.60;99.90
8662;DHT22;29684;47.722;9.388;2023-08-01T23:08:40;14.70;99.90
8662;DHT22;29684;47.722;9.388;2023-08-01T23:11:24;14.60;99.90
8662;DHT22;29684;47.722;9.388;2023-08-01T23:14:08;14.50;99.90
8662;DHT22;29684;47.722;9.388;2023-08-01T23:16:52;14.60;99.90
8662;DHT22;29684;47.722;9.388;2023-08-01T23:26:58;14.70;99.90
8662;DHT22;29684;47.722;9.388;2023-08-01T23:29:42;14.70;99.90
8662;DHT22;29684;47.722;9.388;2023-08-01T23:32:27;14.70;99.90
8662;DHT22;29684;47.722;9.388;2023-08-01T23:35:11;14.70;99.90
8662;DHT22;29684;47.722;9.388;2023-08-01T23:37:56;14.70;99.90
8662;DHT22;29684;47.722;9.388;2023-08-01T23:40:42;14.60;99.90
8662;DHT22;29684;47.722;9.388;2023-08-01T23:43:26;14.60;99.90
8662;DHT22;29684;47.722;9.388;2023-08-01T23:46:11;14.50;99.90
8662;DHT22;29684;47.722;9.388;2023-08-01T23:48:55;14.50;99.90
8662;DHT22;29684;47.722;9.388;2023-08-01T23:51:39;14.40;99.90
8662;DHT22;29684;47.722;9.388;2023-08-01T23:54:23;14.50;99.90
8662;DHT22;29684;47.722;9.388;2023-08-01T23:57:07;14.40;99.90
8662;DHT22;29684;47.722;9.388;2023-08-01T23:59:53;14.30;99.90
